sensor_id;sensor_type;location;lat;lon;timestamp;temperature;humidity
20068;DHT22;10194;50.824;7.134;2023-12-28T00:01:34;9.80;99.90
20068;DHT22;10194;50.824;7.134;2023-12-28T00:03:59;9.80;99.90
20068;DHT22;10194;50.824;7.134;2023-12-28T00:06:25;9.80;99.90
20068;DHT22;10194;50.824;7.134;2023-12-28T00:08:51;9.80;99.90
20068;DHT22;10194;50.824;7.134;2023-12-28T00:11:17;9.80;99.90
20068;DHT22;10194;50.824;7.134;2023-12-28T00:13:43;9.80;99.90
20068;DHT22;10194;50.824;7.134;2023-12-28T00:16:09;9.80;99.90
20068;DHT22;10194;50.824;7.134;2023-12-28T00:18:34;9.80;99.90
20068;DHT22;10194;50.824;7.134;2023-12-28T00:21:00;9.80;99.90
20068;DHT22;10194;50.824;7.134;2023-12-28T00:23:26;9.80;99.90
20068;DHT22;10194;50.824;7.134;2023-12-28T00:25:52;9.80;99.90
20068;DHT22;10194;50.824;7.134;2023-12-28T00:28:17;9.80;99.90
20068;DHT22;10194;50.824;7.134;2023-12-28T00:30:43;9.80;99.90
20068;DHT22;10194;50.824;7.134;2023-12-28T00:33:09;9.80;99.90
20068;DHT22;10194;50.824;7.134;2023-12-28T00:35:35;9.80;99.90
20068;DHT22;10194;50.824;7.134;2023-12-28T00:38:01;9.80;99.90
20068;DHT22;10194;50.824;7.134;2023-12-28T00:40:26;9.90;99.90
20068;DHT22;10194;50.824;7.134;2023-12-28T00:42:52;10.00;99.90
20068;DHT22;10194;50.824;7.134;2023-12-28T00:45:18;9.90;99.90
20068;DHT22;10194;50.824;7.134;2023-12-28T00:47:44;9.80;99.90
20068;DHT22;10194;50.824;7.134;2023-12-28T00:50:10;9.70;99.90
20068;DHT22;10194;50.824;7.134;2023-12-28T00:52:40;9.70;99.90
20068;DHT22;10194;50.824;7.134;2023-12-28T00:55:07;9.60;99.90
20068;DHT22;10194;50.824;7.134;2023-12-28T00:57:33;9.70;99.90
20068;DHT22;10194;50.824;7.134;2023-12-28T00:59:59;9.70;99.90
20068;DHT22;10194;50.824;7.134;2023-12-28T01:02:26;9.70;99.90
20068;DHT22;10194;50.824;7.134;2023-12-28T01:04:52;9.70;99.90
20068;DHT22;10194;50.824;7.134;2023-12-28T01:07:18;9.70;99.90
20068;DHT22;10194;50.824;7.134;2023-12-28T01:09:43;9.70;99.90
20068;DHT22;10194;50.824;7.134;2023-12-28T01:12:09;9.70;99.90
20068;DHT22;10194;50.824;7.134;2023-12-28T01:14:35;9.70;99.90
20068;DHT22;10194;50.824;7.134;2023-12-28T01:17:01;9.70;99.90
20068;DHT22;10194;50.824;7.134;2023-12-28T01:19:26;9.70;99.90
20068;DHT22;10194;50.824;7.134;2023-12-28T01:21:52;9.70;99.90
20068;DHT22;10194;50.824;7.134;2023-12-28T01:24:18;9.70;99.90
20068;DHT22;10194;50.824;7.134;2023-12-28T01:26:44;9.70;99.90
20068;DHT22;10194;50.824;7.134;2023-12-28T01:29:10;9.70;99.90
20068;DHT22;10194;50.824;7.134;2023-12-28T01:31:36;9.70;99.90
20068;DHT22;10194;50.824;7.134;2023-12-28T01:34:03;9.80;99.90
20068;DHT22;10194;50.824;7.134;2023-12-28T01:36:29;9.80;99.90
20068;DHT22;10194;50.824;7.134;2023-12-28T01:38:55;9.80;99.90
20068;DHT22;10194;50.824;7.134;2023-12-28T01:41:21;9.80;99.90
20068;DHT22;10194;50.824;7.134;2023-12-28T01:43:47;9.80;99.90
20068;DHT22;10194;50.824;7.134;2023-12-28T01:46:17;9.80;99.90
20068;DHT22;10194;50.824;7.134;2023-12-28T01:48:46;9.80;99.90
20068;DHT22;10194;50.824;7.134;2023-12-28T01:51:14;9.80;99.90
20068;DHT22;10194;50.824;7.134;2023-12-28T01:53:42;9.80;99.90
20068;DHT22;10194;50.824;7.134;2023-12-28T01:56:08;9.80;99.90
20068;DHT22;10194;50.824;7.134;2023-12-28T01:58:35;9.80;99.90
20068;DHT22;10194;50.824;7.134;2023-12-28T02:01:02;9.80;99.90
20068;DHT22;10194;50.824;7.134;2023-12-28T02:03:28;9.80;99.90
20068;DHT22;10194;50.824;7.134;2023-12-28T02:05:54;9.90;99.90
20068;DHT22;10194;50.824;7.134;2023-12-28T02:08:20;9.80;99.90
20068;DHT22;10194;50.824;7.134;2023-12-28T02:10:46;9.80;99.90
20068;DHT22;10194;50.824;7.134;2023-12-28T02:13:12;9.80;99.90
20068;DHT22;10194;50.824;7.134;2023-12-28T02:15:38;9.80;99.90
20068;DHT22;10194;50.824;7.134;2023-12-28T02:18:12;9.70;99.90
20068;DHT22;10194;50.824;7.134;2023-12-28T02:20:43;9.70;99.90
20068;DHT22;10194;50.824;7.134;2023-12-28T02:23:10;9.70;99.90
20068;DHT22;10194;50.824;7.134;2023-12-28T02:25:36;9.60;99.90
20068;DHT22;10194;50.824;7.134;2023-12-28T02:28:02;9.60;99.90
20068;DHT22;10194;50.824;7.134;2023-12-28T02:30:28;9.60;99.90
20068;DHT22;10194;50.824;7.134;2023-12-28T02:33:10;9.60;99.90
20068;DHT22;10194;50.824;7.134;2023-12-28T02:35:48;9.60;99.90
20068;DHT22;10194;50.824;7.134;2023-12-28T02:38:17;9.60;99.90
20068;DHT22;10194;50.824;7.134;2023-12-28T02:40:44;9.60;99.90
20068;DHT22;10194;50.824;7.134;2023-12-28T02:46:41;9.50;99.90
20068;DHT22;10194;50.824;7.134;2023-12-28T02:49:07;9.50;99.90
20068;DHT22;10194;50.824;7.134;2023-12-28T02:51:33;9.40;99.90
20068;DHT22;10194;50.824;7.134;2023-12-28T02:53:58;9.40;99.90
20068;DHT22;10194;50.824;7.134;2023-12-28T02:56:24;9.40;99.90
20068;DHT22;10194;50.824;7.134;2023-12-28T02:58:50;9.40;99.90
20068;DHT22;10194;50.824;7.134;2023-12-28T03:01:16;9.30;99.90
20068;DHT22;10194;50.824;7.134;2023-12-28T03:03:41;9.20;99.90
20068;DHT22;10194;50.824;7.134;2023-12-28T03:06:07;9.20;99.90
20068;DHT22;10194;50.824;7.134;2023-12-28T03:08:33;9.10;99.90
20068;DHT22;10194;50.824;7.134;2023-12-28T03:10:59;9.10;99.90
20068;DHT22;10194;50.824;7.134;2023-12-28T03:13:25;9.10;99.90
20068;DHT22;10194;50.824;7.134;2023-12-28T03:15:51;9.00;99.90
20068;DHT22;10194;50.824;7.134;2023-12-28T03:18:16;8.90;99.90
20068;DHT22;10194;50.824;7.134;2023-12-28T03:20:42;8.90;99.90
20068;DHT22;10194;50.824;7.134;2023-12-28T03:23:08;8.90;99.90
20068;DHT22;10194;50.824;7.134;2023-12-28T03:25:33;8.90;99.90
20068;DHT22;10194;50.824;7.134;2023-12-28T03:27:59;8.90;99.90
20068;DHT22;10194;50.824;7.134;2023-12-28T03:30:25;8.80;99.90
20068;DHT22;10194;50.824;7.134;2023-12-28T03:32:51;8.70;99.90
20068;DHT22;10194;50.824;7.134;2023-12-28T03:35:16;8.70;99.90
20068;DHT22;10194;50.824;7.134;2023-12-28T03:37:42;8.70;99.90
20068;DHT22;10194;50.824;7.134;2023-12-28T03:40:08;8.80;99.90
20068;DHT22;10194;50.824;7.134;2023-12-28T03:42:35;8.70;99.90
20068;DHT22;10194;50.824;7.134;2023-12-28T03:45:00;8.70;99.90
20068;DHT22;10194;50.824;7.134;2023-12-28T03:47:26;8.70;99.90
20068;DHT22;10194;50.824;7.134;2023-12-28T03:49:52;8.70;99.90
20068;DHT22;10194;50.824;7.134;2023-12-28T03:52:18;8.70;99.90
20068;DHT22;10194;50.824;7.134;2023-12-28T03:54:43;8.70;99.90
20068;DHT22;10194;50.824;7.134;2023-12-28T03:57:09;8.70;99.90
20068;DHT22;10194;50.824;7.134;2023-12-28T03:59:35;8.60;99.90
20068;DHT22;10194;50.824;7.134;2023-12-28T04:02:01;8.70;99.90
20068;DHT22;10194;50.824;7.134;2023-12-28T04:04:27;8.80;99.90
20068;DHT22;10194;50.824;7.134;2023-12-28T04:06:53;8.80;99.90
20068;DHT22;10194;50.824;7.134;2023-12-28T04:09:18;8.70;99.90
20068;DHT22;10194;50.824;7.134;2023-12-28T04:11:44;8.60;99.90
20068;DHT22;10194;50.824;7.134;2023-12-28T04:14:10;8.60;99.90
20068;DHT22;10194;50.824;7.134;2023-12-28T04:16:36;8.60;99.90
20068;DHT22;10194;50.824;7.134;2023-12-28T04:19:02;8.60;99.90
20068;DHT22;10194;50.824;7.134;2023-12-28T04:21:28;8.60;99.90
20068;DHT22;10194;50.824;7.134;2023-12-28T04:23:53;8.70;99.90
20068;DHT22;10194;50.824;7.134;2023-12-28T04:26:19;8.80;99.90
20068;DHT22;10194;50.824;7.134;2023-12-28T04:28:47;8.60;99.90
20068;DHT22;10194;50.824;7.134;2023-12-28T04:31:13;8.60;99.90
20068;DHT22;10194;50.824;7.134;2023-12-28T04:33:39;8.60;99.90
20068;DHT22;10194;50.824;7.134;2023-12-28T04:36:05;8.70;99.90
20068;DHT22;10194;50.824;7.134;2023-12-28T04:38:31;8.80;99.90
20068;DHT22;10194;50.824;7.134;2023-12-28T04:40:58;8.70;99.90
20068;DHT22;10194;50.824;7.134;2023-12-28T04:43:24;8.60;99.90
20068;DHT22;10194;50.824;7.134;2023-12-28T04:45:51;8.60;99.90
20068;DHT22;10194;50.824;7.134;2023-12-28T04:48:17;8.60;99.90
20068;DHT22;10194;50.824;7.134;2023-12-28T04:50:47;8.70;99.90
20068;DHT22;10194;50.824;7.134;2023-12-28T04:53:13;8.70;99.90
20068;DHT22;10194;50.824;7.134;2023-12-28T04:55:39;8.70;99.90
20068;DHT22;10194;50.824;7.134;2023-12-28T04:58:05;8.70;99.90
20068;DHT22;10194;50.824;7.134;2023-12-28T05:00:31;8.70;99.90
20068;DHT22;10194;50.824;7.134;2023-12-28T05:02:56;8.70;99.90
20068;DHT22;10194;50.824;7.134;2023-12-28T05:05:22;8.60;99.90
20068;DHT22;10194;50.824;7.134;2023-12-28T05:07:48;8.70;99.90
20068;DHT22;10194;50.824;7.134;2023-12-28T05:10:14;8.70;99.90
20068;DHT22;10194;50.824;7.134;2023-12-28T05:12:39;8.70;99.90
20068;DHT22;10194;50.824;7.134;2023-12-28T05:15:05;8.70;99.90
20068;DHT22;10194;50.824;7.134;2023-12-28T05:17:31;8.80;99.90
20068;DHT22;10194;50.824;7.134;2023-12-28T05:19:57;8.80;99.90
20068;DHT22;10194;50.824;7.134;2023-12-28T05:22:23;8.80;99.90
20068;DHT22;10194;50.824;7.134;2023-12-28T05:24:49;8.70;99.90
20068;DHT22;10194;50.824;7.134;2023-12-28T05:27:14;8.70;99.90
20068;DHT22;10194;50.824;7.134;2023-12-28T05:29:40;8.60;99.90
20068;DHT22;10194;50.824;7.134;2023-12-28T05:32:06;8.60;99.90
20068;DHT22;10194;50.824;7.134;2023-12-28T05:34:32;8.50;99.90
20068;DHT22;10194;50.824;7.134;2023-12-28T05:36:58;8.50;99.90
20068;DHT22;10194;50.824;7.134;2023-12-28T05:39:23;8.50;99.90
20068;DHT22;10194;50.824;7.134;2023-12-28T05:41:49;8.50;99.90
20068;DHT22;10194;50.824;7.134;2023-12-28T05:44:16;8.40;99.90
20068;DHT22;10194;50.824;7.134;2023-12-28T05:46:42;8.40;99.90
20068;DHT22;10194;50.824;7.134;2023-12-28T05:49:08;8.40;99.90
20068;DHT22;10194;50.824;7.134;2023-12-28T05:51:40;8.40;99.90
20068;DHT22;10194;50.824;7.134;2023-12-28T05:54:07;8.40;99.90
20068;DHT22;10194;50.824;7.134;2023-12-28T05:56:33;8.30;99.90
20068;DHT22;10194;50.824;7.134;2023-12-28T05:58:59;8.30;99.90
20068;DHT22;10194;50.824;7.134;2023-12-28T06:01:25;8.40;99.90
20068;DHT22;10194;50.824;7.134;2023-12-28T06:03:53;8.30;99.90
20068;DHT22;10194;50.824;7.134;2023-12-28T06:06:19;8.20;99.90
20068;DHT22;10194;50.824;7.134;2023-12-28T06:08:46;8.10;99.90
20068;DHT22;10194;50.824;7.134;2023-12-28T06:11:11;8.00;99.90
20068;DHT22;10194;50.824;7.134;2023-12-28T06:13:37;8.00;99.90
20068;DHT22;10194;50.824;7.134;2023-12-28T06:16:03;7.90;99.90
20068;DHT22;10194;50.824;7.134;2023-12-28T06:18:29;7.80;99.90
20068;DHT22;10194;50.824;7.134;2023-12-28T06:20:55;7.70;99.90
20068;DHT22;10194;50.824;7.134;2023-12-28T06:23:20;7.60;99.90
20068;DHT22;10194;50.824;7.134;2023-12-28T06:25:46;7.60;99.90
20068;DHT22;10194;50.824;7.134;2023-12-28T06:28:12;7.70;99.90
20068;DHT22;10194;50.824;7.134;2023-12-28T06:30:38;7.80;99.90
20068;DHT22;10194;50.824;7.134;2023-12-28T06:33:05;7.80;99.90
20068;DHT22;10194;50.824;7.134;2023-12-28T06:35:31;7.80;99.90
20068;DHT22;10194;50.824;7.134;2023-12-28T06:37:57;7.60;99.90
20068;DHT22;10194;50.824;7.134;2023-12-28T06:40:22;7.60;99.90
20068;DHT22;10194;50.824;7.134;2023-12-28T06:42:48;7.60;99.90
20068;DHT22;10194;50.824;7.134;2023-12-28T06:45:14;7.70;99.90
20068;DHT22;10194;50.824;7.134;2023-12-28T06:47:40;7.50;99.90
20068;DHT22;10194;50.824;7.134;2023-12-28T06:50:06;7.50;99.90
20068;DHT22;10194;50.824;7.134;2023-12-28T06:52:32;7.50;99.90
20068;DHT22;10194;50.824;7.134;2023-12-28T06:54:58;7.40;99.90
20068;DHT22;10194;50.824;7.134;2023-12-28T06:57:24;7.40;99.90
20068;DHT22;10194;50.824;7.134;2023-12-28T06:59:50;7.40;99.90
20068;DHT22;10194;50.824;7.134;2023-12-28T07:02:16;7.30;99.90
20068;DHT22;10194;50.824;7.134;2023-12-28T07:04:41;7.30;99.90
20068;DHT22;10194;50.824;7.134;2023-12-28T07:07:07;7.10;99.90
20068;DHT22;10194;50.824;7.134;2023-12-28T07:09:33;7.10;99.90
20068;DHT22;10194;50.824;7.134;2023-12-28T07:11:58;7.00;99.90
20068;DHT22;10194;50.824;7.134;2023-12-28T07:14:25;7.10;99.90
20068;DHT22;10194;50.824;7.134;2023-12-28T07:16:50;6.90;99.90
20068;DHT22;10194;50.824;7.134;2023-12-28T07:19:16;6.90;99.90
20068;DHT22;10194;50.824;7.134;2023-12-28T07:21:42;6.80;99.90
20068;DHT22;10194;50.824;7.134;2023-12-28T07:24:08;6.70;99.90
20068;DHT22;10194;50.824;7.134;2023-12-28T07:26:33;6.60;99.90
20068;DHT22;10194;50.824;7.134;2023-12-28T07:28:59;6.60;99.90
20068;DHT22;10194;50.824;7.134;2023-12-28T07:31:25;6.50;99.90
20068;DHT22;10194;50.824;7.134;2023-12-28T07:33:52;6.40;99.90
20068;DHT22;10194;50.824;7.134;2023-12-28T07:36:19;6.20;99.90
20068;DHT22;10194;50.824;7.134;2023-12-28T07:38:46;6.10;99.90
20068;DHT22;10194;50.824;7.134;2023-12-28T07:41:11;6.00;99.90
20068;DHT22;10194;50.824;7.134;2023-12-28T07:43:37;6.00;99.90
20068;DHT22;10194;50.824;7.134;2023-12-28T07:46:03;6.00;99.90
20068;DHT22;10194;50.824;7.134;2023-12-28T07:48:30;5.90;99.90
20068;DHT22;10194;50.824;7.134;2023-12-28T07:50:59;5.90;99.90
20068;DHT22;10194;50.824;7.134;2023-12-28T07:53:29;6.00;99.90
20068;DHT22;10194;50.824;7.134;2023-12-28T07:55:55;6.00;99.90
20068;DHT22;10194;50.824;7.134;2023-12-28T07:58:21;6.00;99.90
20068;DHT22;10194;50.824;7.134;2023-12-28T08:00:47;6.00;99.90
20068;DHT22;10194;50.824;7.134;2023-12-28T08:03:14;6.10;99.90
20068;DHT22;10194;50.824;7.134;2023-12-28T08:05:43;6.00;99.90
20068;DHT22;10194;50.824;7.134;2023-12-28T08:08:08;5.90;99.90
20068;DHT22;10194;50.824;7.134;2023-12-28T08:10:35;5.90;99.90
20068;DHT22;10194;50.824;7.134;2023-12-28T08:13:01;5.90;99.90
20068;DHT22;10194;50.824;7.134;2023-12-28T08:15:27;5.90;99.90
20068;DHT22;10194;50.824;7.134;2023-12-28T08:17:52;6.00;99.90
20068;DHT22;10194;50.824;7.134;2023-12-28T08:20:18;5.90;99.90
20068;DHT22;10194;50.824;7.134;2023-12-28T08:22:44;5.90;99.90
20068;DHT22;10194;50.824;7.134;2023-12-28T08:25:09;6.00;99.90
20068;DHT22;10194;50.824;7.134;2023-12-28T08:27:36;5.80;99.90
20068;DHT22;10194;50.824;7.134;2023-12-28T08:30:01;5.80;99.90
20068;DHT22;10194;50.824;7.134;2023-12-28T08:32:28;5.70;99.90
20068;DHT22;10194;50.824;7.134;2023-12-28T08:34:54;5.80;99.90
20068;DHT22;10194;50.824;7.134;2023-12-28T08:37:20;5.80;99.90
20068;DHT22;10194;50.824;7.134;2023-12-28T08:39:46;5.90;99.90
20068;DHT22;10194;50.824;7.134;2023-12-28T08:42:11;6.00;99.90
20068;DHT22;10194;50.824;7.134;2023-12-28T08:44:37;6.20;99.90
20068;DHT22;10194;50.824;7.134;2023-12-28T08:47:03;6.30;99.90
20068;DHT22;10194;50.824;7.134;2023-12-28T08:49:29;6.40;99.90
20068;DHT22;10194;50.824;7.134;2023-12-28T08:51:55;6.60;99.90
20068;DHT22;10194;50.824;7.134;2023-12-28T08:54:20;7.00;99.90
20068;DHT22;10194;50.824;7.134;2023-12-28T08:56:46;7.40;99.90
20068;DHT22;10194;50.824;7.134;2023-12-28T08:59:13;7.80;99.90
20068;DHT22;10194;50.824;7.134;2023-12-28T09:01:39;8.20;99.90
20068;DHT22;10194;50.824;7.134;2023-12-28T09:04:05;8.50;99.90
20068;DHT22;10194;50.824;7.134;2023-12-28T09:06:31;8.80;99.90
20068;DHT22;10194;50.824;7.134;2023-12-28T09:08:56;9.00;99.90
20068;DHT22;10194;50.824;7.134;2023-12-28T09:11:23;9.20;99.90
20068;DHT22;10194;50.824;7.134;2023-12-28T09:13:49;9.30;99.90
20068;DHT22;10194;50.824;7.134;2023-12-28T09:16:15;9.30;99.90
20068;DHT22;10194;50.824;7.134;2023-12-28T09:18:41;9.40;99.90
20068;DHT22;10194;50.824;7.134;2023-12-28T09:21:08;9.50;99.90
20068;DHT22;10194;50.824;7.134;2023-12-28T09:23:35;9.60;99.90
20068;DHT22;10194;50.824;7.134;2023-12-28T09:26:05;9.70;99.90
20068;DHT22;10194;50.824;7.134;2023-12-28T09:28:32;9.80;99.90
20068;DHT22;10194;50.824;7.134;2023-12-28T09:30:58;9.90;99.90
20068;DHT22;10194;50.824;7.134;2023-12-28T09:33:25;10.00;99.90
20068;DHT22;10194;50.824;7.134;2023-12-28T09:35:50;10.10;99.90
20068;DHT22;10194;50.824;7.134;2023-12-28T09:38:16;10.10;99.90
20068;DHT22;10194;50.824;7.134;2023-12-28T09:40:45;10.30;99.90
20068;DHT22;10194;50.824;7.134;2023-12-28T09:43:25;10.40;99.90
20068;DHT22;10194;50.824;7.134;2023-12-28T09:45:52;10.60;99.90
20068;DHT22;10194;50.824;7.134;2023-12-28T09:48:20;10.70;99.90
20068;DHT22;10194;50.824;7.134;2023-12-28T09:50:51;10.80;99.90
20068;DHT22;10194;50.824;7.134;2023-12-28T09:53:23;11.00;99.90
20068;DHT22;10194;50.824;7.134;2023-12-28T09:55:51;11.10;99.90
20068;DHT22;10194;50.824;7.134;2023-12-28T09:58:18;11.20;99.90
20068;DHT22;10194;50.824;7.134;2023-12-28T10:00:47;11.20;99.90
20068;DHT22;10194;50.824;7.134;2023-12-28T10:03:17;11.20;99.90
20068;DHT22;10194;50.824;7.134;2023-12-28T10:05:44;11.10;99.90
20068;DHT22;10194;50.824;7.134;2023-12-28T10:08:17;11.00;99.90
20068;DHT22;10194;50.824;7.134;2023-12-28T10:10:44;11.00;99.90
20068;DHT22;10194;50.824;7.134;2023-12-28T10:13:16;11.00;99.90
20068;DHT22;10194;50.824;7.134;2023-12-28T10:15:43;11.10;99.90
20068;DHT22;10194;50.824;7.134;2023-12-28T10:18:09;11.10;99.90
20068;DHT22;10194;50.824;7.134;2023-12-28T10:20:34;11.10;99.90
20068;DHT22;10194;50.824;7.134;2023-12-28T10:23:00;11.10;99.90
20068;DHT22;10194;50.824;7.134;2023-12-28T10:25:31;11.10;99.90
20068;DHT22;10194;50.824;7.134;2023-12-28T10:28:03;11.10;99.90
20068;DHT22;10194;50.824;7.134;2023-12-28T10:30:29;11.10;99.90
20068;DHT22;10194;50.824;7.134;2023-12-28T10:32:55;11.10;99.90
20068;DHT22;10194;50.824;7.134;2023-12-28T10:35:21;11.30;99.90
20068;DHT22;10194;50.824;7.134;2023-12-28T10:37:50;11.20;99.90
20068;DHT22;10194;50.824;7.134;2023-12-28T10:40:21;11.20;99.90
20068;DHT22;10194;50.824;7.134;2023-12-28T10:45:31;11.30;99.90
20068;DHT22;10194;50.824;7.134;2023-12-28T10:48:05;11.30;99.90
20068;DHT22;10194;50.824;7.134;2023-12-28T10:50:48;11.40;99.90
20068;DHT22;10194;50.824;7.134;2023-12-28T10:58:58;11.40;99.90
20068;DHT22;10194;50.824;7.134;2023-12-28T11:01:40;11.50;99.90
20068;DHT22;10194;50.824;7.134;2023-12-28T11:04:51;11.50;99.90
20068;DHT22;10194;50.824;7.134;2023-12-28T11:07:21;11.60;99.90
20068;DHT22;10194;50.824;7.134;2023-12-28T11:09:47;11.60;99.90
20068;DHT22;10194;50.824;7.134;2023-12-28T11:12:13;11.70;99.90
20068;DHT22;10194;50.824;7.134;2023-12-28T11:14:44;11.70;99.90
20068;DHT22;10194;50.824;7.134;2023-12-28T11:17:10;11.70;99.90
20068;DHT22;10194;50.824;7.134;2023-12-28T11:19:40;11.90;99.90
20068;DHT22;10194;50.824;7.134;2023-12-28T11:22:07;11.90;99.90
20068;DHT22;10194;50.824;7.134;2023-12-28T11:24:34;11.90;99.90
20068;DHT22;10194;50.824;7.134;2023-12-28T11:27:03;12.00;99.90
20068;DHT22;10194;50.824;7.134;2023-12-28T11:29:30;12.00;99.90
20068;DHT22;10194;50.824;7.134;2023-12-28T11:32:01;12.00;99.90
20068;DHT22;10194;50.824;7.134;2023-12-28T11:34:31;12.00;99.90
20068;DHT22;10194;50.824;7.134;2023-12-28T11:37:04;12.00;99.90
20068;DHT22;10194;50.824;7.134;2023-12-28T11:39:34;11.90;99.90
20068;DHT22;10194;50.824;7.134;2023-12-28T11:42:09;12.00;99.90
20068;DHT22;10194;50.824;7.134;2023-12-28T11:44:39;12.00;99.90
20068;DHT22;10194;50.824;7.134;2023-12-28T11:47:21;12.10;99.90
20068;DHT22;10194;50.824;7.134;2023-12-28T11:49:48;12.10;99.90
20068;DHT22;10194;50.824;7.134;2023-12-28T11:52:43;12.10;99.90
20068;DHT22;10194;50.824;7.134;2023-12-28T11:55:09;12.20;99.90
20068;DHT22;10194;50.824;7.134;2023-12-28T11:57:36;12.20;99.90
20068;DHT22;10194;50.824;7.134;2023-12-28T12:00:03;12.10;99.90
20068;DHT22;10194;50.824;7.134;2023-12-28T12:02:29;12.20;99.90
20068;DHT22;10194;50.824;7.134;2023-12-28T12:04:56;12.20;99.90
20068;DHT22;10194;50.824;7.134;2023-12-28T12:07:27;12.20;99.90
20068;DHT22;10194;50.824;7.134;2023-12-28T12:09:59;12.20;99.90
20068;DHT22;10194;50.824;7.134;2023-12-28T12:12:25;12.10;99.90
20068;DHT22;10194;50.824;7.134;2023-12-28T12:14:51;12.20;99.90
20068;DHT22;10194;50.824;7.134;2023-12-28T12:17:17;12.20;99.90
20068;DHT22;10194;50.824;7.134;2023-12-28T12:19:44;12.20;99.90
20068;DHT22;10194;50.824;7.134;2023-12-28T12:22:14;12.30;99.90
20068;DHT22;10194;50.824;7.134;2023-12-28T12:24:41;12.20;99.90
20068;DHT22;10194;50.824;7.134;2023-12-28T12:27:09;12.20;99.90
20068;DHT22;10194;50.824;7.134;2023-12-28T12:29:35;12.20;99.90
20068;DHT22;10194;50.824;7.134;2023-12-28T12:32:01;12.20;99.90
20068;DHT22;10194;50.824;7.134;2023-12-28T12:34:28;12.20;99.90
20068;DHT22;10194;50.824;7.134;2023-12-28T12:36:54;12.10;99.90
20068;DHT22;10194;50.824;7.134;2023-12-28T12:39:23;12.10;99.90
20068;DHT22;10194;50.824;7.134;2023-12-28T12:41:49;12.10;99.90
20068;DHT22;10194;50.824;7.134;2023-12-28T12:44:17;12.10;99.90
20068;DHT22;10194;50.824;7.134;2023-12-28T12:46:45;12.10;99.90
20068;DHT22;10194;50.824;7.134;2023-12-28T12:49:10;12.10;99.90
20068;DHT22;10194;50.824;7.134;2023-12-28T12:51:38;12.20;99.90
20068;DHT22;10194;50.824;7.134;2023-12-28T12:54:04;12.20;99.90
20068;DHT22;10194;50.824;7.134;2023-12-28T12:56:30;12.20;99.90
20068;DHT22;10194;50.824;7.134;2023-12-28T12:58:57;12.10;99.90
20068;DHT22;10194;50.824;7.134;2023-12-28T13:01:23;12.00;99.90
20068;DHT22;10194;50.824;7.134;2023-12-28T13:03:50;12.00;99.90
20068;DHT22;10194;50.824;7.134;2023-12-28T13:06:16;12.00;99.90
20068;DHT22;10194;50.824;7.134;2023-12-28T13:08:42;11.90;99.90
20068;DHT22;10194;50.824;7.134;2023-12-28T13:11:08;11.90;99.90
20068;DHT22;10194;50.824;7.134;2023-12-28T13:13:34;11.90;99.90
20068;DHT22;10194;50.824;7.134;2023-12-28T13:16:01;11.80;99.90
20068;DHT22;10194;50.824;7.134;2023-12-28T13:18:27;11.80;99.90
20068;DHT22;10194;50.824;7.134;2023-12-28T13:20:53;11.80;99.90
20068;DHT22;10194;50.824;7.134;2023-12-28T13:23:18;11.80;99.90
20068;DHT22;10194;50.824;7.134;2023-12-28T13:25:44;11.80;99.90
20068;DHT22;10194;50.824;7.134;2023-12-28T13:28:10;11.80;99.90
20068;DHT22;10194;50.824;7.134;2023-12-28T13:30:37;11.80;99.90
20068;DHT22;10194;50.824;7.134;2023-12-28T13:33:04;11.80;99.90
20068;DHT22;10194;50.824;7.134;2023-12-28T13:35:30;11.80;99.90
20068;DHT22;10194;50.824;7.134;2023-12-28T13:37:59;11.80;99.90
20068;DHT22;10194;50.824;7.134;2023-12-28T13:40:27;11.70;99.90
20068;DHT22;10194;50.824;7.134;2023-12-28T13:42:53;11.70;99.90
20068;DHT22;10194;50.824;7.134;2023-12-28T13:45:19;11.70;99.90
20068;DHT22;10194;50.824;7.134;2023-12-28T13:47:45;11.60;99.90
20068;DHT22;10194;50.824;7.134;2023-12-28T13:50:11;11.60;99.90
20068;DHT22;10194;50.824;7.134;2023-12-28T13:52:36;11.60;99.90
20068;DHT22;10194;50.824;7.134;2023-12-28T13:55:02;11.60;99.90
20068;DHT22;10194;50.824;7.134;2023-12-28T13:57:28;11.60;99.90
20068;DHT22;10194;50.824;7.134;2023-12-28T13:59:54;11.50;99.90
20068;DHT22;10194;50.824;7.134;2023-12-28T14:02:22;11.50;99.90
20068;DHT22;10194;50.824;7.134;2023-12-28T14:04:48;11.50;99.90
20068;DHT22;10194;50.824;7.134;2023-12-28T14:07:14;11.40;99.90
20068;DHT22;10194;50.824;7.134;2023-12-28T14:09:39;11.40;99.90
20068;DHT22;10194;50.824;7.134;2023-12-28T14:12:06;11.40;99.90
20068;DHT22;10194;50.824;7.134;2023-12-28T14:14:32;11.40;99.90
20068;DHT22;10194;50.824;7.134;2023-12-28T14:16:57;11.30;99.90
20068;DHT22;10194;50.824;7.134;2023-12-28T14:19:23;11.30;99.90
20068;DHT22;10194;50.824;7.134;2023-12-28T14:21:49;11.30;99.90
20068;DHT22;10194;50.824;7.134;2023-12-28T14:24:16;11.20;99.90
20068;DHT22;10194;50.824;7.134;2023-12-28T14:26:44;11.20;99.90
20068;DHT22;10194;50.824;7.134;2023-12-28T14:29:11;11.20;99.90
20068;DHT22;10194;50.824;7.134;2023-12-28T14:31:37;11.20;99.90
20068;DHT22;10194;50.824;7.134;2023-12-28T14:34:03;11.10;99.90
20068;DHT22;10194;50.824;7.134;2023-12-28T14:36:36;11.10;99.90
20068;DHT22;10194;50.824;7.134;2023-12-28T14:39:05;11.00;99.90
20068;DHT22;10194;50.824;7.134;2023-12-28T14:41:33;11.00;99.90
20068;DHT22;10194;50.824;7.134;2023-12-28T14:43:59;11.00;99.90
20068;DHT22;10194;50.824;7.134;2023-12-28T14:46:26;11.00;99.90
20068;DHT22;10194;50.824;7.134;2023-12-28T14:48:52;10.90;99.90
20068;DHT22;10194;50.824;7.134;2023-12-28T14:51:18;10.90;99.90
20068;DHT22;10194;50.824;7.134;2023-12-28T14:53:45;10.90;99.90
20068;DHT22;10194;50.824;7.134;2023-12-28T14:56:11;10.90;99.90
20068;DHT22;10194;50.824;7.134;2023-12-28T14:58:38;11.00;99.90
20068;DHT22;10194;50.824;7.134;2023-12-28T15:01:05;11.00;99.90
20068;DHT22;10194;50.824;7.134;2023-12-28T15:03:31;10.90;99.90
20068;DHT22;10194;50.824;7.134;2023-12-28T15:05:57;10.80;99.90
20068;DHT22;10194;50.824;7.134;2023-12-28T15:08:25;10.80;99.90
20068;DHT22;10194;50.824;7.134;2023-12-28T15:10:51;10.70;99.90
20068;DHT22;10194;50.824;7.134;2023-12-28T15:13:18;10.70;99.90
20068;DHT22;10194;50.824;7.134;2023-12-28T15:15:44;10.60;99.90
20068;DHT22;10194;50.824;7.134;2023-12-28T15:18:10;10.60;99.90
20068;DHT22;10194;50.824;7.134;2023-12-28T15:24:09;10.70;99.90
20068;DHT22;10194;50.824;7.134;2023-12-28T15:26:35;10.60;99.90
20068;DHT22;10194;50.824;7.134;2023-12-28T15:29:02;10.60;99.90
20068;DHT22;10194;50.824;7.134;2023-12-28T15:31:29;10.50;99.90
20068;DHT22;10194;50.824;7.134;2023-12-28T15:33:55;10.40;99.90
20068;DHT22;10194;50.824;7.134;2023-12-28T15:36:22;10.50;99.90
20068;DHT22;10194;50.824;7.134;2023-12-28T15:38:48;10.40;99.90
20068;DHT22;10194;50.824;7.134;2023-12-28T15:41:13;10.40;99.90
20068;DHT22;10194;50.824;7.134;2023-12-28T15:43:40;10.30;99.90
20068;DHT22;10194;50.824;7.134;2023-12-28T15:46:05;10.20;99.90
20068;DHT22;10194;50.824;7.134;2023-12-28T15:48:32;10.10;99.90
20068;DHT22;10194;50.824;7.134;2023-12-28T15:50:57;10.20;99.90
20068;DHT22;10194;50.824;7.134;2023-12-28T15:53:23;10.10;99.90